Temp: 14.5°C   Baro: 1019.3mb
  Wind: 6.9mph   Dir: WNW (302°)
  Rain: 0.2mm (0.0mm/hr)
  Solar: 227W/m2  Hum: 72%
 
Bath Spa Weather Station Historical Data
Daily Summary for November 5, 2019 Units:  Metric    English   Both
Daily Weekly Monthly Yearly Custom
  High: Low: Average:
Temperature: 12.1 °C 8.6 °C 9.9 °C
Dew Point: 9.7 °C 6.8 °C 8 °C
Humidity: 91.8% 85% 88%
Wind Speed: 13.2km/h 0km/h 6.9km/h
Wind Gust: 25.7km/h - -
Wind- - SW
Pressure: 1007 hPa 988.4 hPa -
Precipitation: 0 mm    
Historical Graphs
 
 
Tabular Data for November 5, 2019
Time Temperature Dew Point Pressure Wind Wind Speed Wind Gust Humidity Rainfall Rate (Hourly) solar
00:04 9.3 °C 8.1 °C 988.4 hPa NNE 2.3 km/h 11.3 km/h 91.5% 0 mm 0 W/m2
00:09 9.3 °C 8.1 °C 988.4 hPa NE 7.1 km/h 16.1 km/h 91.8% 0 mm 0 W/m2
00:14 9.4 °C 8 °C 988.7 hPa NE 6.1 km/h 17.7 km/h 91% 0 mm 0 W/m2
00:19 9.4 °C 8 °C 988.7 hPa NE 9.7 km/h 20.9 km/h 91% 0 mm 0 W/m2
00:24 9.4 °C 8 °C 988.7 hPa NE 8.5 km/h 17.7 km/h 91% 0 mm 0 W/m2
00:29 9.4 °C 8.1 °C 988.7 hPa NE 6.9 km/h 16.1 km/h 91% 0 mm 0 W/m2
00:34 9.6 °C 8.2 °C 989.1 hPa NE 6 km/h 17.7 km/h 91% 0 mm 0 W/m2
00:39 9.6 °C 8.2 °C 989.1 hPa NE 7.7 km/h 20.9 km/h 91% 0 mm 0 W/m2
00:44 9.7 °C 8.2 °C 989.1 hPa NNE 7.6 km/h 20.9 km/h 91% 0 mm 0 W/m2
00:49 9.7 °C 8.3 °C 989.1 hPa NE 5.1 km/h 12.9 km/h 91% 0 mm 0 W/m2
00:54 9.7 °C 8.3 °C 989.1 hPa NNE 4.7 km/h 12.9 km/h 91% 0 mm 0 W/m2
00:59 9.8 °C 8.3 °C 989.1 hPa NNE 8 km/h 17.7 km/h 91% 0 mm 0 W/m2
01:04 9.8 °C 8.4 °C 989.1 hPa NE 6.9 km/h 22.5 km/h 91% 0 mm 0 W/m2
01:09 9.8 °C 8.3 °C 989.4 hPa NNE 3.4 km/h 12.9 km/h 90.9% 0 mm 0 W/m2
01:14 9.7 °C 8.2 °C 989.4 hPa NE 3.5 km/h 11.3 km/h 90% 0 mm 0 W/m2
01:19 9.7 °C 8.1 °C 989.4 hPa NE 6 km/h 14.5 km/h 90% 0 mm 0 W/m2
01:24 9.7 °C 8.1 °C 989.7 hPa NNE 8.7 km/h 19.3 km/h 90% 0 mm 0 W/m2
01:29 9.7 °C 8.1 °C 989.7 hPa NNE 7.9 km/h 19.3 km/h 90% 0 mm 0 W/m2
01:34 9.7 °C 8.1 °C 989.7 hPa NNE 9 km/h 19.3 km/h 89.5% 0 mm 0 W/m2
01:39 9.6 °C 7.9 °C 989.7 hPa NNE 4.5 km/h 16.1 km/h 89% 0 mm 0 W/m2
01:44 9.6 °C 7.9 °C 989.7 hPa NNW 4.3 km/h 14.5 km/h 89% 0 mm 0 W/m2
01:49 9.6 °C 7.9 °C 989.7 hPa NNE 4.2 km/h 14.5 km/h 89% 0 mm 0 W/m2
01:54 9.6 °C 7.8 °C 989.7 hPa NNE 6 km/h 17.7 km/h 88.9% 0 mm 0 W/m2
01:59 9.4 °C 7.6 °C 990.1 hPa NNE 8 km/h 19.3 km/h 88% 0 mm 0 W/m2
02:04 9.4 °C 7.5 °C 990.1 hPa NNE 3.1 km/h 14.5 km/h 88% 0 mm 0 W/m2
02:09 9.4 °C 7.5 °C 990.1 hPa NNE 3.7 km/h 11.3 km/h 88% 0 mm 0 W/m2
02:14 9.3 °C 7.4 °C 990.1 hPa NNE 4.5 km/h 14.5 km/h 88% 0 mm 0 W/m2
02:19 9.3 °C 7.4 °C 990.4 hPa NNE 4.5 km/h 12.9 km/h 88% 0 mm 0 W/m2
02:24 9.3 °C 7.3 °C 990.4 hPa North 6.4 km/h 12.9 km/h 88% 0 mm 0 W/m2
02:29 9.2 °C 7.3 °C 990.4 hPa NNE 11.7 km/h 24.1 km/h 88% 0 mm 0 W/m2
02:34 9.2 °C 7.3 °C 990.4 hPa NNE 8 km/h 24.1 km/h 88% 0 mm 0 W/m2
02:39 9.2 °C 7.3 °C 990.7 hPa NNE 9.5 km/h 17.7 km/h 88% 0 mm 0 W/m2
02:44 9.2 °C 7.3 °C 990.7 hPa North 8.4 km/h 19.3 km/h 88% 0 mm 0 W/m2
02:49 9.1 °C 7.2 °C 990.7 hPa NNE 5 km/h 19.3 km/h 88% 0 mm 0 W/m2
02:54 9.1 °C 7.2 °C 990.7 hPa NNE 6.6 km/h 14.5 km/h 88% 0 mm 0 W/m2
02:59 9.1 °C 7.2 °C 991.1 hPa NNE 5.8 km/h 14.5 km/h 88% 0 mm 0 W/m2
03:04 9 °C 7.1 °C 991.1 hPa NNE 8 km/h 16.1 km/h 88% 0 mm 0 W/m2
03:09 8.9 °C 7 °C 991.1 hPa NNE 11.3 km/h 20.9 km/h 88% 0 mm 0 W/m2
03:14 8.9 °C 7 °C 991.1 hPa NNE 7.2 km/h 20.9 km/h 88% 0 mm 0 W/m2
03:19 8.9 °C 7 °C 991.1 hPa NNE 11.9 km/h 24.1 km/h 88% 0 mm 0 W/m2
03:24 8.9 °C 7 °C 991.4 hPa North 12.4 km/h 20.9 km/h 88% 0 mm 0 W/m2
03:29 8.9 °C 7 °C 991.4 hPa NNE 8.7 km/h 19.3 km/h 88% 0 mm 0 W/m2
03:34 8.9 °C 7 °C 991.4 hPa NNE 8.7 km/h 19.3 km/h 88% 0 mm 0 W/m2
03:39 8.9 °C 7.1 °C 991.4 hPa NNE 9.5 km/h 22.5 km/h 88% 0 mm 0 W/m2
03:44 8.9 °C 7 °C 991.4 hPa NNE 8 km/h 22.5 km/h 88% 0 mm 0 W/m2
03:49 8.9 °C 7 °C 991.8 hPa NNE 8 km/h 22.5 km/h 88% 0 mm 0 W/m2
03:54 8.8 °C 6.9 °C 991.8 hPa North 6.6 km/h 14.5 km/h 88% 0 mm 0 W/m2
03:59 8.8 °C 6.9 °C 991.8 hPa NNE 6.6 km/h 16.1 km/h 88% 0 mm 0 W/m2
04:04 8.8 °C 6.9 °C 991.8 hPa North 5.5 km/h 19.3 km/h 88.1% 0 mm 0 W/m2
04:09 8.7 °C 7 °C 992.1 hPa North 6.6 km/h 19.3 km/h 89% 0 mm 0 W/m2
04:14 8.7 °C 7 °C 992.1 hPa NNE 6 km/h 14.5 km/h 89% 0 mm 0 W/m2
04:19 8.6 °C 6.9 °C 992.1 hPa NNE 5 km/h 16.1 km/h 89% 0 mm 0 W/m2
04:24 8.6 °C 6.9 °C 992.4 hPa NNE 6 km/h 12.9 km/h 89% 0 mm 0 W/m2
04:29 8.6 °C 6.9 °C 992.4 hPa NNE 7.9 km/h 14.5 km/h 89% 0 mm 0 W/m2
04:34 8.7 °C 6.9 °C 992.4 hPa North 4.5 km/h 12.9 km/h 89% 0 mm 0 W/m2
04:39 8.7 °C 7 °C 992.8 hPa North 5.8 km/h 12.9 km/h 89.1% 0 mm 0 W/m2
04:44 8.7 °C 7.1 °C 992.8 hPa North 5.5 km/h 12.9 km/h 89.6% 0 mm 0 W/m2
04:49 8.7 °C 7.1 °C 992.8 hPa NNE 8.4 km/h 16.1 km/h 89.3% 0 mm 0 W/m2
04:54 8.7 °C 7.2 °C 992.8 hPa North 7.4 km/h 17.7 km/h 90% 0 mm 0 W/m2
04:59 8.8 °C 7.2 °C 993.1 hPa North 7.6 km/h 17.7 km/h 90% 0 mm 0 W/m2
05:04 8.8 °C 7.2 °C 993.1 hPa North 5.3 km/h 17.7 km/h 90% 0 mm 0 W/m2
05:09 8.8 °C 7.2 °C 993.1 hPa NNW 3.7 km/h 14.5 km/h 90% 0 mm 0 W/m2
05:14 8.8 °C 7.2 °C 993.1 hPa NNW 4.7 km/h 12.9 km/h 90% 0 mm 0 W/m2
05:19 8.8 °C 7.2 °C 993.5 hPa NNW 4.7 km/h 12.9 km/h 90% 0 mm 0 W/m2
05:24 8.8 °C 7.2 °C 993.5 hPa NNW 9 km/h 20.9 km/h 90% 0 mm 0 W/m2
05:29 8.8 °C 7.2 °C 993.5 hPa North 8 km/h 17.7 km/h 90% 0 mm 0 W/m2
05:34 8.7 °C 7.2 °C 993.8 hPa NNW 7.1 km/h 14.5 km/h 90% 0 mm 0 W/m2
05:39 8.8 °C 7.2 °C 993.8 hPa NNE 4.7 km/h 14.5 km/h 90% 0 mm 0 W/m2
05:44 8.8 °C 7.2 °C 993.8 hPa North 6.1 km/h 17.7 km/h 90% 0 mm 0 W/m2
05:49 8.8 °C 7.2 °C 993.8 hPa NNE 6.3 km/h 16.1 km/h 90% 0 mm 0 W/m2
05:54 8.8 °C 7.2 °C 994.1 hPa North 7.2 km/h 14.5 km/h 90% 0 mm 0 W/m2
05:59 8.8 °C 7.2 °C 994.1 hPa NNE 5.5 km/h 14.5 km/h 90% 0 mm 0 W/m2
06:04 8.8 °C 7.2 °C 994.1 hPa NNW 6 km/h 14.5 km/h 90% 0 mm 0 W/m2
06:09 8.8 °C 7.2 °C 994.1 hPa NNW 1.8 km/h 9.7 km/h 90% 0 mm 0 W/m2
06:14 8.8 °C 7.2 °C 994.5 hPa NNW 3.7 km/h 9.7 km/h 90% 0 mm 0 W/m2
06:19 8.8 °C 7.2 °C 994.5 hPa NNW 3.5 km/h 9.7 km/h 90% 0 mm 0 W/m2
06:24 8.8 °C 7.2 °C 994.5 hPa North 6.8 km/h 12.9 km/h 90% 0 mm 0 W/m2
06:29 8.8 °C 7.2 °C 994.5 hPa NNW 7.1 km/h 14.5 km/h 90% 0 mm 0 W/m2
06:34 8.9 °C 7.3 °C 994.8 hPa NNW 6.4 km/h 16.1 km/h 90% 0 mm 0 W/m2
06:39 8.9 °C 7.3 °C 994.8 hPa NNW 7.2 km/h 16.1 km/h 90% 0 mm 0 W/m2
06:44 8.9 °C 7.3 °C 994.8 hPa NW 6.6 km/h 14.5 km/h 90% 0 mm 0 W/m2
06:49 8.9 °C 7.3 °C 995.1 hPa NNW 6.1 km/h 14.5 km/h 90% 0 mm 0 W/m2
06:54 8.9 °C 7.3 °C 995.1 hPa NNW 6.3 km/h 16.1 km/h 90% 0 mm 0 W/m2
06:59 9 °C 7.4 °C 995.1 hPa North 6.6 km/h 14.5 km/h 90% 0 mm 0 W/m2
07:04 9 °C 7.4 °C 995.1 hPa NNW 8.9 km/h 16.1 km/h 90% 0 mm 0 W/m2
07:09 9.1 °C 7.4 °C 995.1 hPa North 5.6 km/h 16.1 km/h 90% 0 mm 0 W/m2
07:14 9.1 °C 7.5 °C 995.5 hPa NNW 4.8 km/h 9.7 km/h 90% 0 mm 0 W/m2
07:19 9.1 °C 7.6 °C 995.5 hPa NNW 5.6 km/h 12.9 km/h 90.2% 0 mm 0 W/m2
07:24 9.1 °C 7.6 °C 995.8 hPa NNW 5.3 km/h 11.3 km/h 90.2% 0 mm 0 W/m2
07:29 9.2 °C 7.6 °C 995.8 hPa NNW 3.9 km/h 9.7 km/h 90% 0 mm 7 W/m2
07:34 9.2 °C 7.6 °C 995.8 hPa NNW 4 km/h 12.9 km/h 90% 0 mm 11 W/m2
07:39 9.2 °C 7.6 °C 995.8 hPa North 4.7 km/h 12.9 km/h 90% 0 mm 11 W/m2
07:44 9.2 °C 7.6 °C 996.2 hPa NNW 6.6 km/h 14.5 km/h 90% 0 mm 12 W/m2
07:49 9.3 °C 7.7 °C 996.2 hPa NW 5.8 km/h 14.5 km/h 90% 0 mm 16 W/m2
07:54 9.3 °C 7.7 °C 996.2 hPa NNW 6 km/h 12.9 km/h 90% 0 mm 19 W/m2
07:59 9.4 °C 7.8 °C 996.2 hPa NNW 4.7 km/h 14.5 km/h 90% 0 mm 26 W/m2
08:04 9.4 °C 7.8 °C 996.5 hPa NNW 7.6 km/h 16.1 km/h 90% 0 mm 28 W/m2
08:09 9.4 °C 7.8 °C 996.5 hPa NNW 8.2 km/h 14.5 km/h 90% 0 mm 32 W/m2
08:14 9.5 °C 7.9 °C 996.5 hPa North 9.3 km/h 17.7 km/h 90% 0 mm 39 W/m2
08:19 9.6 °C 7.9 °C 996.8 hPa NNW 10.3 km/h 20.9 km/h 90% 0 mm 42 W/m2
08:24 9.6 °C 8 °C 996.8 hPa North 7.9 km/h 20.9 km/h 90% 0 mm 39 W/m2
08:29 9.7 °C 8.1 °C 996.8 hPa North 8.5 km/h 17.7 km/h 90% 0 mm 44 W/m2
08:34 9.7 °C 8.1 °C 996.8 hPa NNW 9.2 km/h 19.3 km/h 90% 0 mm 42 W/m2
08:39 9.7 °C 8.1 °C 996.8 hPa NNW 7.9 km/h 16.1 km/h 90% 0 mm 72 W/m2
08:44 9.7 °C 8.1 °C 997.2 hPa NNW 5.5 km/h 17.7 km/h 89.4% 0 mm 102 W/m2
08:49 9.8 °C 8.1 °C 997.2 hPa NNW 8 km/h 19.3 km/h 89% 0 mm 114 W/m2
08:54 9.8 °C 8.2 °C 997.2 hPa NNW 3.9 km/h 12.9 km/h 89% 0 mm 120 W/m2
08:59 9.9 °C 8.3 °C 997.2 hPa North 7.7 km/h 14.5 km/h 89.5% 0 mm 121 W/m2
09:04 9.9 °C 8.2 °C 997.2 hPa NNW 11.7 km/h 20.9 km/h 89% 0 mm 107 W/m2
09:09 9.9 °C 8.2 °C 997.2 hPa North 10.1 km/h 20.9 km/h 89% 0 mm 107 W/m2
09:14 9.8 °C 8.2 °C 997.2 hPa NW 6.6 km/h 16.1 km/h 89% 0 mm 121 W/m2
09:19 9.9 °C 8.2 °C 997.5 hPa North 8.4 km/h 16.1 km/h 89% 0 mm 151 W/m2
09:24 9.9 °C 8.2 °C 997.5 hPa North 7.7 km/h 16.1 km/h 89% 0 mm 100 W/m2
09:29 9.9 °C 8.2 °C 997.5 hPa North 8 km/h 16.1 km/h 89% 0 mm 132 W/m2
09:34 10 °C 8.3 °C 997.9 hPa NNE 8.2 km/h 16.1 km/h 89% 0 mm 179 W/m2
09:39 10.1 °C 8.4 °C 997.9 hPa North 9.7 km/h 20.9 km/h 89% 0 mm 179 W/m2
09:44 10.2 °C 8.5 °C 997.9 hPa NNW 9.8 km/h 20.9 km/h 89% 0 mm 183 W/m2
09:49 10.3 °C 8.4 °C 997.9 hPa North 10.8 km/h 20.9 km/h 88.1% 0 mm 156 W/m2
09:54 10.3 °C 8.4 °C 997.9 hPa North 6.4 km/h 20.9 km/h 88% 0 mm 128 W/m2
09:59 10.3 °C 8.3 °C 997.9 hPa North 6.8 km/h 19.3 km/h 87.8% 0 mm 107 W/m2
10:04 10.3 °C 8.2 °C 998.2 hPa North 5.6 km/h 19.3 km/h 87% 0 mm 130 W/m2
10:09 10.3 °C 8.2 °C 998.2 hPa North 9.7 km/h 22.5 km/h 87% 0 mm 142 W/m2
10:14 10.3 °C 8.2 °C 998.2 hPa North 9.2 km/h 17.7 km/h 87% 0 mm 155 W/m2
10:19 10.3 °C 8.3 °C 998.2 hPa North 5.1 km/h 17.7 km/h 87% 0 mm 209 W/m2
10:24 10.5 °C 8.4 °C 998.5 hPa North 8 km/h 14.5 km/h 87% 0 mm 195 W/m2
10:29 10.6 °C 8.5 °C 998.5 hPa North 7.7 km/h 16.1 km/h 86.8% 0 mm 172 W/m2
10:34 10.7 °C 8.4 °C 998.5 hPa North 8 km/h 19.3 km/h 86.4% 0 mm 127 W/m2
10:39 10.7 °C 8.4 °C 998.5 hPa NNW 6.4 km/h 16.1 km/h 86% 0 mm 137 W/m2
10:44 10.7 °C 8.5 °C 998.5 hPa NNW 8.9 km/h 17.7 km/h 86% 0 mm 127 W/m2
10:49 10.7 °C 8.5 °C 998.9 hPa North 6 km/h 16.1 km/h 86% 0 mm 151 W/m2
10:54 10.7 °C 8.5 °C 998.9 hPa NNW 11.9 km/h 22.5 km/h 86% 0 mm 137 W/m2
10:59 10.7 °C 8.5 °C 998.9 hPa NNW 9 km/h 20.9 km/h 86% 0 mm 88 W/m2
11:04 10.7 °C 8.4 °C 998.9 hPa NNW 9.8 km/h 20.9 km/h 86% 0 mm 69 W/m2
11:09 10.7 °C 8.5 °C 999.2 hPa North 6.3 km/h 14.5 km/h 86% 0 mm 83 W/m2
11:14 10.7 °C 8.5 °C 999.2 hPa North 7.7 km/h 17.7 km/h 86% 0 mm 111 W/m2
11:19 10.7 °C 8.5 °C 999.2 hPa NNW 10 km/h 16.1 km/h 86% 0 mm 135 W/m2
11:24 10.8 °C 8.6 °C 999.2 hPa NNW 8.2 km/h 17.7 km/h 86% 0 mm 142 W/m2
11:29 10.8 °C 8.6 °C 999.2 hPa North 5.8 km/h 16.1 km/h 86% 0 mm 137 W/m2
11:34 10.9 °C 8.6 °C 999.2 hPa NNW 9 km/h 16.1 km/h 86% 0 mm 90 W/m2
11:39 10.9 °C 8.6 °C 999.2 hPa NNW 8.2 km/h 16.1 km/h 86% 0 mm 111 W/m2
11:44 10.9 °C 8.7 °C 999.2 hPa NW 8.9 km/h 20.9 km/h 86% 0 mm 113 W/m2
11:49 11 °C 8.7 °C 999.2 hPa NNW 8.9 km/h 16.1 km/h 86% 0 mm 128 W/m2
11:54 11.1 °C 8.8 °C 999.2 hPa NNW 8.9 km/h 17.7 km/h 86% 0 mm 151 W/m2
11:59 11.2 °C 8.9 °C 999.2 hPa NNW 9 km/h 19.3 km/h 86% 0 mm 151 W/m2
12:04 11.3 °C 8.9 °C 999.2 hPa North 7.1 km/h 17.7 km/h 86% 0 mm 160 W/m2
12:09 11.3 °C 9.1 °C 999.5 hPa NW 7.6 km/h 16.1 km/h 86% 0 mm 178 W/m2
12:14 11.4 °C 9.1 °C 999.5 hPa North 9.2 km/h 20.9 km/h 85.5% 0 mm 227 W/m2
12:19 11.6 °C 9.2 °C 999.5 hPa North 7.9 km/h 17.7 km/h 85% 0 mm 200 W/m2
12:24 11.6 °C 9.2 °C 999.5 hPa North 7.9 km/h 14.5 km/h 85% 0 mm 202 W/m2
12:29 11.7 °C 9.3 °C 999.5 hPa North 7.1 km/h 19.3 km/h 85% 0 mm 63 W/m2
12:34 11.7 °C 9.3 °C 999.5 hPa North 7.9 km/h 16.1 km/h 85% 0 mm 70 W/m2
12:39 11.6 °C 9.2 °C 999.5 hPa North 7.2 km/h 16.1 km/h 85% 0 mm 109 W/m2
12:44 11.6 °C 9.2 °C 999.5 hPa NNW 9.8 km/h 19.3 km/h 85% 0 mm 84 W/m2
12:49 11.6 °C 9.2 °C 999.9 hPa NNW 10 km/h 16.1 km/h 85% 0 mm 81 W/m2
12:54 11.6 °C 9.2 °C 999.9 hPa North 7.9 km/h 17.7 km/h 85% 0 mm 102 W/m2
12:59 11.6 °C 9.2 °C 999.9 hPa NNW 3.9 km/h 12.9 km/h 85% 0 mm 100 W/m2
13:04 11.6 °C 9.2 °C 999.9 hPa NNW 10.3 km/h 19.3 km/h 85.3% 0 mm 100 W/m2
13:09 11.6 °C 9.3 °C 999.9 hPa North 6.8 km/h 17.7 km/h 86% 0 mm 116 W/m2
13:14 11.5 °C 9.3 °C 1000.2 hPa NNW 6.9 km/h 14.5 km/h 86.2% 0 mm 125 W/m2
13:19 11.6 °C 9.4 °C 1000.2 hPa NNW 7.9 km/h 19.3 km/h 87% 0 mm 123 W/m2
13:24 11.6 °C 9.5 °C 1000.2 hPa NNW 6.8 km/h 16.1 km/h 87% 0 mm 83 W/m2
13:29 11.7 °C 9.4 °C 1000.2 hPa NNW 8.5 km/h 24.1 km/h 86.7% 0 mm 105 W/m2
13:34 11.7 °C 9.4 °C 1000.2 hPa NNW 7.4 km/h 16.1 km/h 86% 0 mm 109 W/m2
13:39 11.8 °C 9.5 °C 1000.2 hPa North 10 km/h 20.9 km/h 86% 0 mm 121 W/m2
13:44 11.8 °C 9.6 °C 1000.2 hPa NNW 6.6 km/h 16.1 km/h 86% 0 mm 123 W/m2
13:49 11.9 °C 9.6 °C 1000.2 hPa NNW 11.1 km/h 22.5 km/h 86% 0 mm 123 W/m2
13:54 11.9 °C 9.5 °C 1000.2 hPa NNW 10.8 km/h 22.5 km/h 85.1% 0 mm 121 W/m2
13:59 11.9 °C 9.5 °C 1000.6 hPa NNW 7.9 km/h 17.7 km/h 85% 0 mm 70 W/m2
14:04 11.9 °C 9.5 °C 1000.6 hPa NW 6.8 km/h 17.7 km/h 85% 0 mm 79 W/m2
14:09 11.9 °C 9.5 °C 1000.6 hPa NNW 7.9 km/h 17.7 km/h 85% 0 mm 95 W/m2
14:14 11.9 °C 9.6 °C 1000.9 hPa NNW 6.6 km/h 16.1 km/h 85% 0 mm 86 W/m2
14:19 12 °C 9.6 °C 1000.9 hPa NNW 6.4 km/h 17.7 km/h 85% 0 mm 83 W/m2
14:24 12.1 °C 9.7 °C 1001.2 hPa North 7.1 km/h 16.1 km/h 85% 0 mm 70 W/m2
14:29 12.1 °C 9.7 °C 1001.2 hPa North 6.8 km/h 16.1 km/h 85% 0 mm 35 W/m2
14:34 12.1 °C 9.7 °C 1001.2 hPa NNW 6.6 km/h 12.9 km/h 85% 0 mm 14 W/m2
14:39 11.9 °C 9.6 °C 1001.2 hPa NW 9.5 km/h 19.3 km/h 85% 0 mm 23 W/m2
14:44 11.8 °C 9.4 °C 1001.2 hPa North 10.1 km/h 17.7 km/h 85% 0 mm 23 W/m2
14:49 11.8 °C 9.4 °C 1001.6 hPa NNW 5.5 km/h 17.7 km/h 85% 0 mm 14 W/m2
14:54 11.7 °C 9.3 °C 1001.6 hPa NNW 6.3 km/h 14.5 km/h 85% 0 mm 19 W/m2
14:59 11.7 °C 9.2 °C 1001.6 hPa NNW 7.9 km/h 17.7 km/h 85% 0 mm 25 W/m2
15:04 11.5 °C 9.2 °C 1001.9 hPa North 10.6 km/h 17.7 km/h 85.2% 0 mm 23 W/m2
15:09 11.3 °C 9.1 °C 1001.9 hPa North 8.4 km/h 19.3 km/h 86% 0 mm 25 W/m2
15:14 11.3 °C 9 °C 1001.9 hPa North 8.4 km/h 16.1 km/h 86% 0 mm 25 W/m2
15:19 11.3 °C 9 °C 1001.9 hPa NNW 4.8 km/h 16.1 km/h 86% 0 mm 25 W/m2
15:24 11.3 °C 9 °C 1002.3 hPa NW 2.6 km/h 8 km/h 86% 0 mm 19 W/m2
15:29 11.3 °C 9.1 °C 1002.3 hPa NW 3.2 km/h 11.3 km/h 86.3% 0 mm 19 W/m2
15:34 11.2 °C 9.1 °C 1002.3 hPa North 5.3 km/h 11.3 km/h 87% 0 mm 19 W/m2
15:39 11.2 °C 9.1 °C 1002.3 hPa North 7.7 km/h 22.5 km/h 87% 0 mm 35 W/m2
15:44 11.1 °C 9 °C 1002.3 hPa North 7.4 km/h 22.5 km/h 87% 0 mm 35 W/m2
15:49 11.1 °C 8.9 °C 1002.3 hPa North 11.9 km/h 24.1 km/h 87% 0 mm 28 W/m2
15:54 10.9 °C 8.9 °C 1002.6 hPa North 10.9 km/h 24.1 km/h 87.8% 0 mm 18 W/m2
15:59 10.9 °C 9 °C 1002.6 hPa North 8 km/h 20.9 km/h 88% 0 mm 16 W/m2
16:04 10.8 °C 8.9 °C 1002.6 hPa North 9.3 km/h 22.5 km/h 88% 0 mm 12 W/m2
16:09 10.8 °C 8.8 °C 1002.6 hPa NNW 4.5 km/h 16.1 km/h 87.6% 0 mm 12 W/m2
16:14 10.7 °C 8.8 °C 1002.9 hPa NNW 6 km/h 11.3 km/h 87.9% 0 mm 9 W/m2
16:19 10.7 °C 8.8 °C 1002.9 hPa North 4.5 km/h 11.3 km/h 88% 0 mm 9 W/m2
16:24 10.7 °C 8.8 °C 1002.9 hPa North 5.5 km/h 14.5 km/h 88% 0 mm 5 W/m2
16:29 10.7 °C 8.8 °C 1002.9 hPa North 2.6 km/h 14.5 km/h 88% 0 mm 0 W/m2
16:34 10.7 °C 8.8 °C 1002.9 hPa NNW 6.9 km/h 16.1 km/h 88% 0 mm 0 W/m2
16:39 10.6 °C 8.7 °C 1002.9 hPa NNW 8 km/h 17.7 km/h 88% 0 mm 0 W/m2
16:44 10.6 °C 8.7 °C 1003.3 hPa NNW 10.6 km/h 25.7 km/h 88% 0 mm 0 W/m2
16:49 10.4 °C 8.6 °C 1003.3 hPa North 10.3 km/h 19.3 km/h 88% 0 mm 0 W/m2
16:54 10.4 °C 8.5 °C 1003.3 hPa NNW 7.9 km/h 16.1 km/h 88% 0 mm 0 W/m2
16:59 10.4 °C 8.5 °C 1003.6 hPa NNW 10.8 km/h 19.3 km/h 88% 0 mm 0 W/m2
17:04 10.3 °C 8.4 °C 1003.6 hPa NNW 9.2 km/h 19.3 km/h 88% 0 mm 0 W/m2
17:09 10.3 °C 8.4 °C 1003.6 hPa NNW 12.1 km/h 25.7 km/h 88% 0 mm 0 W/m2
17:14 10.3 °C 8.4 °C 1003.9 hPa North 11.1 km/h 20.9 km/h 88% 0 mm 0 W/m2
17:19 10.3 °C 8.3 °C 1003.9 hPa North 13.2 km/h 24.1 km/h 88% 0 mm 0 W/m2
17:24 10.2 °C 8.3 °C 1003.9 hPa NNW 9.8 km/h 20.9 km/h 88% 0 mm 0 W/m2
17:29 10.2 °C 8.3 °C 1003.9 hPa NNW 7.1 km/h 16.1 km/h 88% 0 mm 0 W/m2
17:34 10.1 °C 8.2 °C 1003.9 hPa NNW 9 km/h 16.1 km/h 88% 0 mm 0 W/m2
17:39 10.1 °C 8.2 °C 1004.3 hPa NNW 10 km/h 20.9 km/h 88% 0 mm 0 W/m2
17:44 10.1 °C 8.2 °C 1004.3 hPa NNW 9.2 km/h 20.9 km/h 88% 0 mm 0 W/m2
17:49 10.1 °C 8.2 °C 1004.3 hPa North 8.7 km/h 22.5 km/h 88% 0 mm 0 W/m2
17:54 10 °C 8.1 °C 1004.3 hPa NNW 9.8 km/h 22.5 km/h 88% 0 mm 0 W/m2
17:59 9.9 °C 8 °C 1004.6 hPa North 11.6 km/h 24.1 km/h 88% 0 mm 0 W/m2
18:04 9.9 °C 8 °C 1004.6 hPa North 10.8 km/h 24.1 km/h 88% 0 mm 0 W/m2
18:09 9.9 °C 8.1 °C 1004.6 hPa NNW 8.2 km/h 20.9 km/h 88.3% 0 mm 0 W/m2
18:14 9.9 °C 8.1 °C 1004.6 hPa North 9.8 km/h 20.9 km/h 88.2% 0 mm 0 W/m2
18:19 9.9 °C 8 °C 1004.6 hPa North 7.4 km/h 19.3 km/h 88% 0 mm 0 W/m2
18:24 9.8 °C 7.9 °C 1004.6 hPa North 7.6 km/h 17.7 km/h 88% 0 mm 0 W/m2
18:29 9.8 °C 7.9 °C 1004.6 hPa NNW 5.5 km/h 14.5 km/h 88% 0 mm 0 W/m2
18:34 9.7 °C 7.8 °C 1004.6 hPa NNW 10.9 km/h 22.5 km/h 88% 0 mm 0 W/m2
18:39 9.7 °C 7.8 °C 1005 hPa NNW 8.5 km/h 17.7 km/h 88% 0 mm 0 W/m2
18:44 9.7 °C 7.8 °C 1005 hPa North 10.3 km/h 25.7 km/h 88% 0 mm 0 W/m2
18:49 9.7 °C 7.8 °C 1005 hPa North 8.9 km/h 19.3 km/h 88% 0 mm 0 W/m2
18:54 9.7 °C 7.8 °C 1005 hPa NNW 7.7 km/h 17.7 km/h 88% 0 mm 0 W/m2
18:59 9.7 °C 7.8 °C 1005 hPa North 10.6 km/h 22.5 km/h 88% 0 mm 0 W/m2
19:04 9.7 °C 7.8 °C 1005 hPa NNW 7.6 km/h 22.5 km/h 88% 0 mm 0 W/m2
19:09 9.7 °C 7.7 °C 1005 hPa NNW 8.9 km/h 19.3 km/h 88% 0 mm 0 W/m2
19:14 9.7 °C 7.8 °C 1005 hPa NNW 10.1 km/h 16.1 km/h 88% 0 mm 0 W/m2
19:19 9.7 °C 7.8 °C 1005.3 hPa NNW 9.7 km/h 22.5 km/h 88% 0 mm 0 W/m2
19:24 9.7 °C 7.8 °C 1005.3 hPa NNW 9 km/h 20.9 km/h 88% 0 mm 0 W/m2
19:29 9.7 °C 7.7 °C 1005.3 hPa NNW 6.6 km/h 14.5 km/h 88% 0 mm 0 W/m2
19:34 9.6 °C 7.7 °C 1005.3 hPa NNW 5.5 km/h 12.9 km/h 88% 0 mm 0 W/m2
19:39 9.6 °C 7.7 °C 1005.3 hPa NW 6.3 km/h 12.9 km/h 88% 0 mm 0 W/m2
19:44 9.6 °C 7.7 °C 1005.3 hPa NNW 7.2 km/h 16.1 km/h 88% 0 mm 0 W/m2
19:49 9.6 °C 7.7 °C 1005.6 hPa NNW 8 km/h 17.7 km/h 88% 0 mm 0 W/m2
19:54 9.6 °C 7.7 °C 1005.6 hPa North 9.2 km/h 22.5 km/h 88% 0 mm 0 W/m2
19:59 9.6 °C 7.7 °C 1005.6 hPa NNW 7.1 km/h 22.5 km/h 87.9% 0 mm 0 W/m2
20:04 9.6 °C 7.6 °C 1005.6 hPa North 6.3 km/h 12.9 km/h 87.2% 0 mm 0 W/m2
20:09 9.6 °C 7.5 °C 1005.6 hPa North 8.9 km/h 16.1 km/h 87% 0 mm 0 W/m2
20:14 9.6 °C 7.5 °C 1005.6 hPa North 3.1 km/h 16.1 km/h 87% 0 mm 0 W/m2
20:19 9.6 °C 7.5 °C 1005.6 hPa NW 4.5 km/h 16.1 km/h 87% 0 mm 0 W/m2
20:24 9.6 °C 7.5 °C 1005.6 hPa NNW 6.8 km/h 14.5 km/h 87% 0 mm 0 W/m2
20:29 9.6 °C 7.4 °C 1005.6 hPa NNW 4.3 km/h 14.5 km/h 87% 0 mm 0 W/m2
20:34 9.6 °C 7.4 °C 1005.6 hPa North 6.1 km/h 14.5 km/h 87% 0 mm 0 W/m2
20:39 9.5 °C 7.4 °C 1005.6 hPa NNW 6 km/h 14.5 km/h 87% 0 mm 0 W/m2
20:44 9.5 °C 7.4 °C 1006 hPa NNW 7.7 km/h 16.1 km/h 87% 0 mm 0 W/m2
20:49 9.5 °C 7.4 °C 1006 hPa North 6.9 km/h 17.7 km/h 87% 0 mm 0 W/m2
20:54 9.5 °C 7.4 °C 1006 hPa North 6.9 km/h 14.5 km/h 87% 0 mm 0 W/m2
20:59 9.5 °C 7.4 °C 1006 hPa North 4.7 km/h 14.5 km/h 87% 0 mm 0 W/m2
21:04 9.5 °C 7.4 °C 1006.3 hPa NNW 6.9 km/h 12.9 km/h 87% 0 mm 0 W/m2
21:09 9.4 °C 7.3 °C 1006.3 hPa NNW 6.6 km/h 14.5 km/h 87% 0 mm 0 W/m2
21:14 9.4 °C 7.3 °C 1006.3 hPa North 8.4 km/h 16.1 km/h 87% 0 mm 0 W/m2
21:19 9.4 °C 7.3 °C 1006.3 hPa North 8 km/h 16.1 km/h 87% 0 mm 0 W/m2
21:24 9.4 °C 7.3 °C 1006.3 hPa North 1.8 km/h 11.3 km/h 87% 0 mm 0 W/m2
21:29 9.4 °C 7.3 °C 1006.3 hPa North 2.4 km/h 8 km/h 87% 0 mm 0 W/m2
21:34 9.4 °C 7.3 °C 1006.3 hPa NNW 4.7 km/h 9.7 km/h 87% 0 mm 0 W/m2
21:39 9.3 °C 7.2 °C 1006.3 hPa NNW 1.8 km/h 8 km/h 87% 0 mm 0 W/m2
21:44 9.3 °C 7.2 °C 1006.3 hPa North 6.4 km/h 16.1 km/h 87% 0 mm 0 W/m2
21:49 9.3 °C 7.2 °C 1006.3 hPa North 1.8 km/h 9.7 km/h 87% 0 mm 0 W/m2
21:54 9.3 °C 7.2 °C 1006.3 hPa North 4.5 km/h 9.7 km/h 87% 0 mm 0 W/m2
21:59 9.3 °C 7.2 °C 1006.3 hPa North 2.3 km/h 6.4 km/h 87% 0 mm 0 W/m2
22:04 9.3 °C 7.2 °C 1006.3 hPa North 1 km/h 4.8 km/h 87% 0 mm 0 W/m2
22:09 9.2 °C 7.2 °C 1006.3 hPa Calm   3.2 km/h 87% 0 mm 0 W/m2
22:14 9.2 °C 7.1 °C 1006.3 hPa North 2.4 km/h 11.3 km/h 87% 0 mm 0 W/m2
22:19 9.2 °C 7.1 °C 1006.3 hPa North 0.3 km/h 3.2 km/h 87% 0 mm 0 W/m2
22:24 9.2 °C 7.1 °C 1006.7 hPa North 1.1 km/h 4.8 km/h 87% 0 mm 0 W/m2
22:29 9.1 °C 7.1 °C 1006.7 hPa North 1.3 km/h 6.4 km/h 87% 0 mm 0 W/m2
22:34 9.1 °C 7.1 °C 1006.7 hPa North 1.8 km/h 4.8 km/h 87% 0 mm 0 W/m2
22:39 9.1 °C 7.1 °C 1006.7 hPa North 0.8 km/h 6.4 km/h 87% 0 mm 0 W/m2
22:44 9.1 °C 7.1 °C 1006.7 hPa North 1.6 km/h 6.4 km/h 87% 0 mm 0 W/m2
22:49 9.1 °C 7.1 °C 1006.7 hPa North 3.1 km/h 8 km/h 87% 0 mm 0 W/m2
22:54 9.1 °C 7.1 °C 1006.7 hPa NNW 6.4 km/h 12.9 km/h 87% 0 mm 0 W/m2
22:59 9.1 °C 7.1 °C 1006.7 hPa NNW 3.4 km/h 11.3 km/h 87% 0 mm 0 W/m2
23:04 9 °C 7.1 °C 1006.7 hPa NNW 2.7 km/h 8 km/h 87.4% 0 mm 0 W/m2
23:09 8.9 °C 7.1 °C 1006.7 hPa NNW 4 km/h 8 km/h 88% 0 mm 0 W/m2
23:14 8.9 °C 7 °C 1006.7 hPa NNW 5 km/h 12.9 km/h 88% 0 mm 0 W/m2
23:19 8.9 °C 7 °C 1006.7 hPa North 3.2 km/h 12.9 km/h 88% 0 mm 0 W/m2
23:24 8.9 °C 7 °C 1006.7 hPa North 2.4 km/h 8 km/h 88% 0 mm 0 W/m2
23:29 8.9 °C 7 °C 1006.7 hPa NNW 3.9 km/h 9.7 km/h 88% 0 mm 0 W/m2
23:34 8.9 °C 7 °C 1006.7 hPa North 5.3 km/h 9.7 km/h 88% 0 mm 0 W/m2
23:39 8.8 °C 6.9 °C 1007 hPa NNW 3.7 km/h 11.3 km/h 88% 0 mm 0 W/m2
23:44 8.8 °C 6.9 °C 1007 hPa NNW 5.6 km/h 12.9 km/h 88% 0 mm 0 W/m2
23:49 8.8 °C 6.9 °C 1007 hPa NNW 9 km/h 16.1 km/h 88% 0 mm 0 W/m2
23:54 8.8 °C 6.8 °C 1007 hPa North 8.5 km/h 17.7 km/h 87.7% 0 mm 0 W/m2
23:59 8.8 °C 6.8 °C 1006.7 hPa North 5.6 km/h 14.5 km/h 87% 0 mm 0 W/m2
Bath Spa Weather
Compliments of Weather Underground - 2 mb